KJST/JST METAR and TAF weather

Enter ICAO airport designator
Station Type Date Time Source
KJST METAR 2020/01/23 08:54 UTC NOAA

KJST 230854Z AUTO 18005KT 10SM CLR M02/M13 A3023 RMK AO2 SLP262 T10171128 58006


Station Type Date Time Source
KJST Decoded METAR 2020/01/23 08:54 UTC NOAA

JOHNSTOWN-CAMBRIA CO AIRPORT , PA, United States (KJST) 40-19N 078-50W 694M
Jan 23, 2020 - 03:54 AM EST / 2020.01.23 0854 UTC
Wind: from the S (180 degrees) at 6 MPH (5 KT):0
Visibility: 10 mile(s):0
Sky conditions: clear
Temperature: 28.9 F (-1.7 C)
Windchill: 23 F (-5 C):1
Dew Point: 9.0 F (-12.8 C)
Relative Humidity: 42%
Pressure (altimeter): 30.23 in. Hg (1023 hPa)
Pressure tendency: 0.02 inches (0.6 hPa) lower than three hours ago
ob: KJST 230854Z AUTO 18005KT 10SM CLR M02/M13 A3023 RMK AO2 SLP262 T10171128 58006
cycle: 9

Station Type Date Time Source
KJST TAF 2020/01/23 06:36 UTC NOAA

TAF KJST 230533Z 2306/2406 18004KT P6SM SCT250
FM231800 16006KT P6SM BKN250

Example: see airport list